Huvudsida
METAR-TAF:

METAR-TAF

Flygplatser :

Kapstadens internationella flygplats

Kapstaden, Sydafrika

latitud: 33-59S, longitud: 018-36E, höjd: 42 m

Aktuellt väderrapport

Denna rapport gjordes för 48 minuter sedan, klockan 18:00 UTC
Vind 16 kt från sydost i byarna ända upp till 26 kt
Temperatur 17°C
Fuktighet 59%
Tryck 1022 hPa
Sikt 10 km eller mer
Inga moln under 1 500 m eller inga cumulonimbus

METAR: FACT 231800Z 14016G26KT CAVOK 17/09 Q1022 NOSIG

Tid: 20:48 (18:48 UTC)

Väderprognos

Denna rapport gjordes för 2 timmar och 48 minuter sedan, klockan 16:00 UTC
Prognos gäller från 23 kl. 18 UTC till 24 kl. 24 UTC
Vind 22 kt från syd/sydost
Sikt 10 km eller mer
Få moln på en höjd av 3000 ft
Blir
från 23 kl. 22 UTC till 23 kl. 24 UTC
Sikt 10 km eller mer
Inga moln under 1 500 m eller inga cumulonimbus
Blir
från 24 kl. 22 UTC till 24 kl. 24 UTC
Vind 3 kt varierande vindriktning

TAF: FACT 231600Z 2318/2424 16022KT 9999 FEW030 TX24/2412Z TN11/2405Z BECMG 2322/2324 CAVOK BECMG 2422/2424 VRB03KT

Aktuella väderrapporter och prognoser från 4000 flygplatser (METAR- och TAF-rapporter).

De tillgängliga stationerna syns som gula och röda prickar på kartan.

För musen över prickarna för att se namnen på stationerna.

Klicka sedan för att få väderrapporter och prognoser.

För att ändra kartan: Klicka på de gröna knapparna med ett svart kors på för att zooma in; den gröna knappen med ett streck på för att zooma ut; eller på de gröna pilarna för angränsande kartor.


METAR-TAF: